sensor_id;sensor_type;location;lat;lon;timestamp;P1;durP1;ratioP1;P2;durP2;ratioP2
59856;SDS011;45733;52.668;6.860;2024-03-02T00:01:07;2.55;;;2.45;;
59856;SDS011;45733;52.668;6.860;2024-03-02T00:03:36;2.58;;;2.47;;
59856;SDS011;45733;52.668;6.860;2024-03-02T00:06:03;2.30;;;2.20;;
59856;SDS011;45733;52.668;6.860;2024-03-02T00:08:29;2.30;;;2.20;;
59856;SDS011;45733;52.668;6.860;2024-03-02T00:10:59;2.25;;;2.15;;
59856;SDS011;45733;52.668;6.860;2024-03-02T00:13:29;2.47;;;2.38;;
59856;SDS011;45733;52.668;6.860;2024-03-02T00:15:57;2.50;;;2.40;;
59856;SDS011;45733;52.668;6.860;2024-03-02T00:20:55;2.40;;;2.30;;
59856;SDS011;45733;52.668;6.860;2024-03-02T00:23:22;2.30;;;2.20;;
59856;SDS011;45733;52.668;6.860;2024-03-02T00:25:54;2.65;;;2.55;;
59856;SDS011;45733;52.668;6.860;2024-03-02T00:36:05;2.70;;;2.60;;
59856;SDS011;45733;52.668;6.860;2024-03-02T00:38:32;2.30;;;2.20;;
59856;SDS011;45733;52.668;6.860;2024-03-02T00:40:59;2.50;;;2.40;;
59856;SDS011;45733;52.668;6.860;2024-03-02T00:46:06;2.50;;;2.40;;
59856;SDS011;45733;52.668;6.860;2024-03-02T00:48:32;2.50;;;2.40;;
59856;SDS011;45733;52.668;6.860;2024-03-02T00:51:01;2.33;;;2.22;;
59856;SDS011;45733;52.668;6.860;2024-03-02T00:53:28;2.30;;;2.20;;
59856;SDS011;45733;52.668;6.860;2024-03-02T00:55:55;2.20;;;2.10;;
59856;SDS011;45733;52.668;6.860;2024-03-02T00:58:21;2.65;;;2.53;;
59856;SDS011;45733;52.668;6.860;2024-03-02T01:00:47;2.35;;;2.25;;
59856;SDS011;45733;52.668;6.860;2024-03-02T01:03:12;2.17;;;2.08;;
59856;SDS011;45733;52.668;6.860;2024-03-02T01:05:44;2.42;;;2.33;;
59856;SDS011;45733;52.668;6.860;2024-03-02T01:08:10;2.35;;;2.25;;
59856;SDS011;45733;52.668;6.860;2024-03-02T01:10:36;2.17;;;2.08;;
59856;SDS011;45733;52.668;6.860;2024-03-02T01:13:01;2.28;;;2.17;;
59856;SDS011;45733;52.668;6.860;2024-03-02T01:15:27;2.13;;;2.03;;
59856;SDS011;45733;52.668;6.860;2024-03-02T01:17:53;2.17;;;2.08;;
59856;SDS011;45733;52.668;6.860;2024-03-02T01:20:19;2.10;;;2.00;;
59856;SDS011;45733;52.668;6.860;2024-03-02T01:22:45;2.03;;;1.92;;
59856;SDS011;45733;52.668;6.860;2024-03-02T01:25:10;2.05;;;1.95;;
59856;SDS011;45733;52.668;6.860;2024-03-02T01:27:36;2.00;;;1.90;;
59856;SDS011;45733;52.668;6.860;2024-03-02T01:30:02;2.10;;;2.00;;
59856;SDS011;45733;52.668;6.860;2024-03-02T01:32:27;1.92;;;1.83;;
59856;SDS011;45733;52.668;6.860;2024-03-02T01:34:53;1.98;;;1.88;;
59856;SDS011;45733;52.668;6.860;2024-03-02T01:37:19;1.98;;;1.88;;
59856;SDS011;45733;52.668;6.860;2024-03-02T01:39:44;1.73;;;1.63;;
59856;SDS011;45733;52.668;6.860;2024-03-02T01:42:10;1.95;;;1.85;;
59856;SDS011;45733;52.668;6.860;2024-03-02T01:44:36;1.95;;;1.85;;
59856;SDS011;45733;52.668;6.860;2024-03-02T01:47:01;1.90;;;1.80;;
59856;SDS011;45733;52.668;6.860;2024-03-02T01:49:27;2.03;;;1.92;;
59856;SDS011;45733;52.668;6.860;2024-03-02T01:51:53;2.00;;;1.90;;
59856;SDS011;45733;52.668;6.860;2024-03-02T01:54:18;2.05;;;1.95;;
59856;SDS011;45733;52.668;6.860;2024-03-02T01:56:44;1.98;;;1.88;;
59856;SDS011;45733;52.668;6.860;2024-03-02T01:59:10;1.65;;;1.55;;
59856;SDS011;45733;52.668;6.860;2024-03-02T02:01:38;1.92;;;1.83;;
59856;SDS011;45733;52.668;6.860;2024-03-02T02:04:04;1.80;;;1.70;;
59856;SDS011;45733;52.668;6.860;2024-03-02T02:06:31;1.75;;;1.65;;
59856;SDS011;45733;52.668;6.860;2024-03-02T02:08:57;1.80;;;1.70;;
59856;SDS011;45733;52.668;6.860;2024-03-02T02:11:23;1.80;;;1.70;;
59856;SDS011;45733;52.668;6.860;2024-03-02T02:13:50;1.92;;;1.83;;
59856;SDS011;45733;52.668;6.860;2024-03-02T02:16:15;1.75;;;1.65;;
59856;SDS011;45733;52.668;6.860;2024-03-02T02:18:41;1.80;;;1.70;;
59856;SDS011;45733;52.668;6.860;2024-03-02T02:21:07;1.70;;;1.60;;
59856;SDS011;45733;52.668;6.860;2024-03-02T02:23:32;1.80;;;1.70;;
59856;SDS011;45733;52.668;6.860;2024-03-02T02:25:58;1.70;;;1.60;;
59856;SDS011;45733;52.668;6.860;2024-03-02T02:28:24;1.65;;;1.55;;
59856;SDS011;45733;52.668;6.860;2024-03-02T02:30:50;1.80;;;1.70;;
59856;SDS011;45733;52.668;6.860;2024-03-02T02:33:15;1.83;;;1.73;;
59856;SDS011;45733;52.668;6.860;2024-03-02T02:35:41;1.75;;;1.65;;
59856;SDS011;45733;52.668;6.860;2024-03-02T02:38:06;1.70;;;1.60;;
59856;SDS011;45733;52.668;6.860;2024-03-02T02:40:32;1.70;;;1.60;;
59856;SDS011;45733;52.668;6.860;2024-03-02T02:42:58;1.63;;;1.52;;
59856;SDS011;45733;52.668;6.860;2024-03-02T02:45:26;1.50;;;1.40;;
59856;SDS011;45733;52.668;6.860;2024-03-02T02:47:52;1.70;;;1.60;;
59856;SDS011;45733;52.668;6.860;2024-03-02T02:50:18;1.55;;;1.45;;
59856;SDS011;45733;52.668;6.860;2024-03-02T02:52:43;1.75;;;1.65;;
59856;SDS011;45733;52.668;6.860;2024-03-02T02:55:10;1.60;;;1.50;;
59856;SDS011;45733;52.668;6.860;2024-03-02T02:57:37;1.40;;;1.40;;
59856;SDS011;45733;52.668;6.860;2024-03-02T03:00:05;1.30;;;1.30;;
59856;SDS011;45733;52.668;6.860;2024-03-02T03:02:36;1.40;;;1.40;;
59856;SDS011;45733;52.668;6.860;2024-03-02T03:05:07;1.30;;;1.30;;
59856;SDS011;45733;52.668;6.860;2024-03-02T03:07:33;1.20;;;1.20;;
59856;SDS011;45733;52.668;6.860;2024-03-02T03:10:00;1.42;;;1.35;;
59856;SDS011;45733;52.668;6.860;2024-03-02T03:12:26;1.20;;;1.20;;
59856;SDS011;45733;52.668;6.860;2024-03-02T03:14:52;1.20;;;1.20;;
59856;SDS011;45733;52.668;6.860;2024-03-02T03:17:17;1.25;;;1.25;;
59856;SDS011;45733;52.668;6.860;2024-03-02T03:19:43;1.20;;;1.20;;
59856;SDS011;45733;52.668;6.860;2024-03-02T03:22:09;1.10;;;1.10;;
59856;SDS011;45733;52.668;6.860;2024-03-02T03:24:34;1.10;;;1.10;;
59856;SDS011;45733;52.668;6.860;2024-03-02T03:27:00;1.15;;;1.15;;
59856;SDS011;45733;52.668;6.860;2024-03-02T03:29:26;1.10;;;1.10;;
59856;SDS011;45733;52.668;6.860;2024-03-02T03:31:51;1.10;;;1.10;;
59856;SDS011;45733;52.668;6.860;2024-03-02T03:34:17;1.10;;;1.10;;
59856;SDS011;45733;52.668;6.860;2024-03-02T03:36:42;1.00;;;1.00;;
59856;SDS011;45733;52.668;6.860;2024-03-02T03:39:08;1.05;;;1.05;;
59856;SDS011;45733;52.668;6.860;2024-03-02T03:41:34;1.10;;;1.10;;
59856;SDS011;45733;52.668;6.860;2024-03-02T03:43:59;1.17;;;1.17;;
59856;SDS011;45733;52.668;6.860;2024-03-02T03:46:25;1.10;;;1.10;;
59856;SDS011;45733;52.668;6.860;2024-03-02T03:48:51;1.10;;;1.10;;
59856;SDS011;45733;52.668;6.860;2024-03-02T03:51:16;1.10;;;1.10;;
59856;SDS011;45733;52.668;6.860;2024-03-02T03:53:42;1.02;;;1.02;;
59856;SDS011;45733;52.668;6.860;2024-03-02T03:56:08;1.20;;;1.20;;
59856;SDS011;45733;52.668;6.860;2024-03-02T03:58:33;1.17;;;1.17;;
59856;SDS011;45733;52.668;6.860;2024-03-02T04:00:59;1.25;;;1.25;;
59856;SDS011;45733;52.668;6.860;2024-03-02T04:03:24;1.15;;;1.15;;
59856;SDS011;45733;52.668;6.860;2024-03-02T04:05:50;1.20;;;1.20;;
59856;SDS011;45733;52.668;6.860;2024-03-02T04:08:16;1.20;;;1.20;;
59856;SDS011;45733;52.668;6.860;2024-03-02T04:10:42;1.50;;;1.40;;
59856;SDS011;45733;52.668;6.860;2024-03-02T04:13:07;1.30;;;1.30;;
59856;SDS011;45733;52.668;6.860;2024-03-02T04:15:33;1.30;;;1.30;;
59856;SDS011;45733;52.668;6.860;2024-03-02T04:17:59;1.50;;;1.40;;
59856;SDS011;45733;52.668;6.860;2024-03-02T04:20:24;1.50;;;1.40;;
59856;SDS011;45733;52.668;6.860;2024-03-02T04:22:50;1.73;;;1.63;;
59856;SDS011;45733;52.668;6.860;2024-03-02T04:25:16;1.60;;;1.50;;
59856;SDS011;45733;52.668;6.860;2024-03-02T04:27:41;1.70;;;1.60;;
59856;SDS011;45733;52.668;6.860;2024-03-02T04:30:07;1.50;;;1.40;;
59856;SDS011;45733;52.668;6.860;2024-03-02T04:32:33;1.60;;;1.50;;
59856;SDS011;45733;52.668;6.860;2024-03-02T04:34:59;1.60;;;1.50;;
59856;SDS011;45733;52.668;6.860;2024-03-02T04:37:24;1.60;;;1.50;;
59856;SDS011;45733;52.668;6.860;2024-03-02T04:39:50;1.50;;;1.40;;
59856;SDS011;45733;52.668;6.860;2024-03-02T04:42:16;1.30;;;1.30;;
59856;SDS011;45733;52.668;6.860;2024-03-02T04:44:41;1.50;;;1.40;;
59856;SDS011;45733;52.668;6.860;2024-03-02T04:47:07;1.70;;;1.60;;
59856;SDS011;45733;52.668;6.860;2024-03-02T04:49:33;1.70;;;1.60;;
59856;SDS011;45733;52.668;6.860;2024-03-02T04:51:58;1.50;;;1.40;;
59856;SDS011;45733;52.668;6.860;2024-03-02T04:54:24;1.30;;;1.30;;
59856;SDS011;45733;52.668;6.860;2024-03-02T04:56:50;1.55;;;1.45;;
59856;SDS011;45733;52.668;6.860;2024-03-02T04:59:19;1.75;;;1.65;;
59856;SDS011;45733;52.668;6.860;2024-03-02T05:01:45;1.52;;;1.42;;
59856;SDS011;45733;52.668;6.860;2024-03-02T05:04:12;1.60;;;1.50;;
59856;SDS011;45733;52.668;6.860;2024-03-02T05:06:41;1.80;;;1.70;;
59856;SDS011;45733;52.668;6.860;2024-03-02T05:09:07;1.70;;;1.60;;
59856;SDS011;45733;52.668;6.860;2024-03-02T05:11:35;1.80;;;1.70;;
59856;SDS011;45733;52.668;6.860;2024-03-02T05:14:21;1.95;;;1.85;;
59856;SDS011;45733;52.668;6.860;2024-03-02T05:16:46;2.10;;;2.00;;
59856;SDS011;45733;52.668;6.860;2024-03-02T05:19:12;2.13;;;2.03;;
59856;SDS011;45733;52.668;6.860;2024-03-02T05:21:38;2.03;;;1.92;;
59856;SDS011;45733;52.668;6.860;2024-03-02T05:24:03;2.45;;;2.35;;
59856;SDS011;45733;52.668;6.860;2024-03-02T05:26:29;2.60;;;2.47;;
59856;SDS011;45733;52.668;6.860;2024-03-02T05:28:55;2.45;;;2.35;;
59856;SDS011;45733;52.668;6.860;2024-03-02T05:31:20;3.03;;;2.83;;
59856;SDS011;45733;52.668;6.860;2024-03-02T05:33:46;2.75;;;2.60;;
59856;SDS011;45733;52.668;6.860;2024-03-02T05:36:11;2.95;;;2.75;;
59856;SDS011;45733;52.668;6.860;2024-03-02T05:38:37;2.92;;;2.72;;
59856;SDS011;45733;52.668;6.860;2024-03-02T05:41:03;2.95;;;2.75;;
59856;SDS011;45733;52.668;6.860;2024-03-02T05:43:28;3.00;;;2.80;;
59856;SDS011;45733;52.668;6.860;2024-03-02T05:45:54;2.80;;;2.60;;
59856;SDS011;45733;52.668;6.860;2024-03-02T05:48:20;3.00;;;2.80;;
59856;SDS011;45733;52.668;6.860;2024-03-02T05:50:46;3.17;;;2.97;;
59856;SDS011;45733;52.668;6.860;2024-03-02T05:53:11;3.03;;;2.83;;
59856;SDS011;45733;52.668;6.860;2024-03-02T05:55:37;3.00;;;2.80;;
59856;SDS011;45733;52.668;6.860;2024-03-02T05:58:02;2.60;;;2.50;;
59856;SDS011;45733;52.668;6.860;2024-03-02T06:00:31;3.20;;;3.00;;
59856;SDS011;45733;52.668;6.860;2024-03-02T06:02:57;3.35;;;3.15;;
59856;SDS011;45733;52.668;6.860;2024-03-02T06:05:23;3.28;;;3.08;;
59856;SDS011;45733;52.668;6.860;2024-03-02T06:07:50;3.30;;;3.10;;
59856;SDS011;45733;52.668;6.860;2024-03-02T06:10:15;3.47;;;3.28;;
59856;SDS011;45733;52.668;6.860;2024-03-02T06:12:42;3.53;;;3.33;;
59856;SDS011;45733;52.668;6.860;2024-03-02T06:15:08;3.10;;;2.90;;
59856;SDS011;45733;52.668;6.860;2024-03-02T06:17:37;3.40;;;3.20;;
59856;SDS011;45733;52.668;6.860;2024-03-02T06:20:03;3.10;;;2.90;;
59856;SDS011;45733;52.668;6.860;2024-03-02T06:22:29;3.72;;;3.53;;
59856;SDS011;45733;52.668;6.860;2024-03-02T06:24:54;3.40;;;3.20;;
59856;SDS011;45733;52.668;6.860;2024-03-02T06:27:20;3.30;;;3.10;;
59856;SDS011;45733;52.668;6.860;2024-03-02T06:29:46;3.42;;;3.22;;
59856;SDS011;45733;52.668;6.860;2024-03-02T06:32:11;3.30;;;3.10;;
59856;SDS011;45733;52.668;6.860;2024-03-02T06:34:37;3.28;;;3.08;;
59856;SDS011;45733;52.668;6.860;2024-03-02T06:37:03;3.30;;;3.10;;
59856;SDS011;45733;52.668;6.860;2024-03-02T06:39:28;3.10;;;2.90;;
59856;SDS011;45733;52.668;6.860;2024-03-02T06:41:56;3.20;;;3.00;;
59856;SDS011;45733;52.668;6.860;2024-03-02T06:44:21;3.00;;;2.80;;
59856;SDS011;45733;52.668;6.860;2024-03-02T06:46:47;2.90;;;2.70;;
59856;SDS011;45733;52.668;6.860;2024-03-02T06:49:13;2.97;;;2.78;;
59856;SDS011;45733;52.668;6.860;2024-03-02T06:51:38;2.90;;;2.70;;
59856;SDS011;45733;52.668;6.860;2024-03-02T06:54:04;2.88;;;2.67;;
59856;SDS011;45733;52.668;6.860;2024-03-02T06:56:30;2.83;;;2.65;;
59856;SDS011;45733;52.668;6.860;2024-03-02T06:59:00;2.50;;;2.40;;
59856;SDS011;45733;52.668;6.860;2024-03-02T07:01:25;2.72;;;2.58;;
59856;SDS011;45733;52.668;6.860;2024-03-02T07:03:51;2.38;;;2.28;;
59856;SDS011;45733;52.668;6.860;2024-03-02T07:06:17;2.22;;;2.13;;
59856;SDS011;45733;52.668;6.860;2024-03-02T07:08:43;2.45;;;2.35;;
59856;SDS011;45733;52.668;6.860;2024-03-02T07:11:08;2.38;;;2.28;;
59856;SDS011;45733;52.668;6.860;2024-03-02T07:13:34;2.53;;;2.42;;
59856;SDS011;45733;52.668;6.860;2024-03-02T07:16:00;2.90;;;2.70;;
59856;SDS011;45733;52.668;6.860;2024-03-02T07:18:31;2.80;;;2.60;;
59856;SDS011;45733;52.668;6.860;2024-03-02T07:20:58;3.13;;;2.92;;
59856;SDS011;45733;52.668;6.860;2024-03-02T07:23:26;3.20;;;3.00;;
59856;SDS011;45733;52.668;6.860;2024-03-02T07:25:58;2.78;;;2.60;;
59856;SDS011;45733;52.668;6.860;2024-03-02T07:28:25;2.88;;;2.67;;
59856;SDS011;45733;52.668;6.860;2024-03-02T07:30:58;2.90;;;2.70;;
59856;SDS011;45733;52.668;6.860;2024-03-02T07:33:24;3.25;;;3.05;;
59856;SDS011;45733;52.668;6.860;2024-03-02T07:35:50;2.80;;;2.65;;
59856;SDS011;45733;52.668;6.860;2024-03-02T07:38:16;2.60;;;2.50;;
59856;SDS011;45733;52.668;6.860;2024-03-02T07:40:42;2.40;;;2.30;;
59856;SDS011;45733;52.668;6.860;2024-03-02T07:43:07;2.33;;;2.22;;
59856;SDS011;45733;52.668;6.860;2024-03-02T07:45:33;2.45;;;2.35;;
59856;SDS011;45733;52.668;6.860;2024-03-02T07:48:01;2.40;;;2.30;;
59856;SDS011;45733;52.668;6.860;2024-03-02T07:50:29;2.05;;;1.95;;
59856;SDS011;45733;52.668;6.860;2024-03-02T07:52:55;2.22;;;2.13;;
59856;SDS011;45733;52.668;6.860;2024-03-02T07:55:21;2.20;;;2.10;;
59856;SDS011;45733;52.668;6.860;2024-03-02T07:57:48;1.88;;;1.77;;
59856;SDS011;45733;52.668;6.860;2024-03-02T08:00:15;1.85;;;1.75;;
59856;SDS011;45733;52.668;6.860;2024-03-02T08:02:41;1.63;;;1.52;;
59856;SDS011;45733;52.668;6.860;2024-03-02T08:05:07;1.60;;;1.50;;
59856;SDS011;45733;52.668;6.860;2024-03-02T08:07:33;1.35;;;1.35;;
59856;SDS011;45733;52.668;6.860;2024-03-02T08:09:59;1.20;;;1.20;;
59856;SDS011;45733;52.668;6.860;2024-03-02T08:12:25;1.20;;;1.20;;
59856;SDS011;45733;52.668;6.860;2024-03-02T08:14:51;1.10;;;1.10;;
59856;SDS011;45733;52.668;6.860;2024-03-02T08:17:16;1.20;;;1.20;;
59856;SDS011;45733;52.668;6.860;2024-03-02T08:19:42;1.05;;;1.05;;
59856;SDS011;45733;52.668;6.860;2024-03-02T08:22:09;1.00;;;1.00;;
59856;SDS011;45733;52.668;6.860;2024-03-02T08:24:35;1.00;;;1.00;;
59856;SDS011;45733;52.668;6.860;2024-03-02T08:27:01;1.00;;;1.00;;
59856;SDS011;45733;52.668;6.860;2024-03-02T08:29:27;1.00;;;1.00;;
59856;SDS011;45733;52.668;6.860;2024-03-02T08:31:52;1.00;;;1.00;;
59856;SDS011;45733;52.668;6.860;2024-03-02T08:34:18;0.90;;;0.90;;
59856;SDS011;45733;52.668;6.860;2024-03-02T08:36:44;1.00;;;1.00;;
59856;SDS011;45733;52.668;6.860;2024-03-02T08:39:11;1.00;;;1.00;;
59856;SDS011;45733;52.668;6.860;2024-03-02T08:41:46;1.00;;;1.00;;
59856;SDS011;45733;52.668;6.860;2024-03-02T08:44:13;1.10;;;1.10;;
59856;SDS011;45733;52.668;6.860;2024-03-02T08:46:39;1.27;;;1.27;;
59856;SDS011;45733;52.668;6.860;2024-03-02T08:49:05;1.50;;;1.40;;
59856;SDS011;45733;52.668;6.860;2024-03-02T08:51:32;1.80;;;1.70;;
59856;SDS011;45733;52.668;6.860;2024-03-02T08:53:58;1.83;;;1.73;;
59856;SDS011;45733;52.668;6.860;2024-03-02T08:56:24;1.85;;;1.75;;
59856;SDS011;45733;52.668;6.860;2024-03-02T08:58:50;2.08;;;1.98;;
59856;SDS011;45733;52.668;6.860;2024-03-02T09:01:16;2.35;;;2.25;;
59856;SDS011;45733;52.668;6.860;2024-03-02T09:03:43;2.30;;;2.20;;
59856;SDS011;45733;52.668;6.860;2024-03-02T09:06:13;2.10;;;2.00;;
59856;SDS011;45733;52.668;6.860;2024-03-02T09:08:39;2.13;;;2.03;;
59856;SDS011;45733;52.668;6.860;2024-03-02T09:11:08;2.00;;;1.90;;
59856;SDS011;45733;52.668;6.860;2024-03-02T09:13:34;1.80;;;1.70;;
59856;SDS011;45733;52.668;6.860;2024-03-02T09:16:00;1.70;;;1.60;;
59856;SDS011;45733;52.668;6.860;2024-03-02T09:18:26;1.60;;;1.50;;
59856;SDS011;45733;52.668;6.860;2024-03-02T09:20:52;1.40;;;1.38;;
59856;SDS011;45733;52.668;6.860;2024-03-02T09:23:18;1.17;;;1.17;;
59856;SDS011;45733;52.668;6.860;2024-03-02T09:25:43;1.65;;;1.55;;
59856;SDS011;45733;52.668;6.860;2024-03-02T09:28:09;1.00;;;1.00;;
59856;SDS011;45733;52.668;6.860;2024-03-02T09:30:35;0.90;;;0.90;;
59856;SDS011;45733;52.668;6.860;2024-03-02T09:33:01;0.80;;;0.80;;
59856;SDS011;45733;52.668;6.860;2024-03-02T09:35:26;0.80;;;0.80;;
59856;SDS011;45733;52.668;6.860;2024-03-02T09:37:52;0.77;;;0.77;;
59856;SDS011;45733;52.668;6.860;2024-03-02T09:40:18;0.80;;;0.80;;
59856;SDS011;45733;52.668;6.860;2024-03-02T09:42:47;0.70;;;0.70;;
59856;SDS011;45733;52.668;6.860;2024-03-02T09:45:18;0.70;;;0.70;;
59856;SDS011;45733;52.668;6.860;2024-03-02T09:47:50;0.80;;;0.80;;
59856;SDS011;45733;52.668;6.860;2024-03-02T09:50:16;0.70;;;0.70;;
59856;SDS011;45733;52.668;6.860;2024-03-02T09:52:42;0.70;;;0.70;;
59856;SDS011;45733;52.668;6.860;2024-03-02T09:55:08;0.60;;;0.60;;
59856;SDS011;45733;52.668;6.860;2024-03-02T09:57:34;0.70;;;0.70;;
59856;SDS011;45733;52.668;6.860;2024-03-02T10:00:00;0.70;;;0.70;;
59856;SDS011;45733;52.668;6.860;2024-03-02T10:02:26;0.70;;;0.70;;
59856;SDS011;45733;52.668;6.860;2024-03-02T10:04:52;0.77;;;0.77;;
59856;SDS011;45733;52.668;6.860;2024-03-02T10:07:18;0.80;;;0.80;;
59856;SDS011;45733;52.668;6.860;2024-03-02T10:09:45;0.93;;;0.93;;
59856;SDS011;45733;52.668;6.860;2024-03-02T10:12:11;1.10;;;1.10;;
59856;SDS011;45733;52.668;6.860;2024-03-02T10:14:39;1.15;;;1.15;;
59856;SDS011;45733;52.668;6.860;2024-03-02T10:17:06;1.23;;;1.23;;
59856;SDS011;45733;52.668;6.860;2024-03-02T10:19:33;1.30;;;1.27;;
59856;SDS011;45733;52.668;6.860;2024-03-02T10:22:03;1.33;;;1.30;;
59856;SDS011;45733;52.668;6.860;2024-03-02T10:24:38;1.02;;;1.02;;
59856;SDS011;45733;52.668;6.860;2024-03-02T10:27:08;1.00;;;1.00;;
59856;SDS011;45733;52.668;6.860;2024-03-02T10:29:36;2.08;;;1.98;;
59856;SDS011;45733;52.668;6.860;2024-03-02T10:32:04;1.23;;;1.23;;
59856;SDS011;45733;52.668;6.860;2024-03-02T10:34:31;1.30;;;1.27;;
59856;SDS011;45733;52.668;6.860;2024-03-02T10:36:57;1.20;;;1.20;;
59856;SDS011;45733;52.668;6.860;2024-03-02T10:39:23;1.25;;;1.25;;
59856;SDS011;45733;52.668;6.860;2024-03-02T10:41:49;1.70;;;1.60;;
59856;SDS011;45733;52.668;6.860;2024-03-02T10:44:18;1.60;;;1.50;;
59856;SDS011;45733;52.668;6.860;2024-03-02T10:46:44;1.17;;;1.17;;
59856;SDS011;45733;52.668;6.860;2024-03-02T10:49:12;1.15;;;1.15;;
59856;SDS011;45733;52.668;6.860;2024-03-02T10:51:38;2.05;;;1.95;;
59856;SDS011;45733;52.668;6.860;2024-03-02T10:54:04;1.13;;;1.13;;
59856;SDS011;45733;52.668;6.860;2024-03-02T10:56:30;1.23;;;1.23;;
59856;SDS011;45733;52.668;6.860;2024-03-02T11:01:46;1.40;;;1.35;;
59856;SDS011;45733;52.668;6.860;2024-03-02T11:04:13;1.98;;;1.88;;
59856;SDS011;45733;52.668;6.860;2024-03-02T11:06:43;1.80;;;1.70;;
59856;SDS011;45733;52.668;6.860;2024-03-02T11:09:16;2.05;;;1.95;;
59856;SDS011;45733;52.668;6.860;2024-03-02T11:11:45;1.92;;;1.83;;
59856;SDS011;45733;52.668;6.860;2024-03-02T11:14:21;1.70;;;1.60;;
59856;SDS011;45733;52.668;6.860;2024-03-02T11:16:50;1.92;;;1.83;;
59856;SDS011;45733;52.668;6.860;2024-03-02T11:19:17;1.30;;;1.30;;
59856;SDS011;45733;52.668;6.860;2024-03-02T11:21:43;2.30;;;2.20;;
59856;SDS011;45733;52.668;6.860;2024-03-02T11:26:52;2.88;;;2.75;;
59856;SDS011;45733;52.668;6.860;2024-03-02T11:32:04;2.67;;;2.55;;
59856;SDS011;45733;52.668;6.860;2024-03-02T11:34:34;4.22;;;3.95;;
59856;SDS011;45733;52.668;6.860;2024-03-02T11:37:01;2.30;;;2.20;;
59856;SDS011;45733;52.668;6.860;2024-03-02T11:39:29;1.83;;;1.73;;
59856;SDS011;45733;52.668;6.860;2024-03-02T11:41:55;2.28;;;2.17;;
59856;SDS011;45733;52.668;6.860;2024-03-02T11:44:22;2.40;;;2.30;;
59856;SDS011;45733;52.668;6.860;2024-03-02T11:46:59;2.10;;;2.00;;
59856;SDS011;45733;52.668;6.860;2024-03-02T11:52:04;2.20;;;2.10;;
59856;SDS011;45733;52.668;6.860;2024-03-02T11:54:32;1.75;;;1.65;;
59856;SDS011;45733;52.668;6.860;2024-03-02T11:57:04;1.95;;;1.85;;
59856;SDS011;45733;52.668;6.860;2024-03-02T11:59:31;1.70;;;1.60;;
59856;SDS011;45733;52.668;6.860;2024-03-02T12:01:57;1.55;;;1.45;;
59856;SDS011;45733;52.668;6.860;2024-03-02T12:04:24;1.98;;;1.88;;
59856;SDS011;45733;52.668;6.860;2024-03-02T12:06:54;1.58;;;1.48;;
59856;SDS011;45733;52.668;6.860;2024-03-02T12:09:26;1.23;;;1.23;;
59856;SDS011;45733;52.668;6.860;2024-03-02T12:12:06;1.75;;;1.65;;
59856;SDS011;45733;52.668;6.860;2024-03-02T12:14:33;1.65;;;1.55;;
59856;SDS011;45733;52.668;6.860;2024-03-02T12:17:03;1.85;;;1.75;;
59856;SDS011;45733;52.668;6.860;2024-03-02T12:19:30;1.70;;;1.60;;
59856;SDS011;45733;52.668;6.860;2024-03-02T12:21:57;1.70;;;1.60;;
59856;SDS011;45733;52.668;6.860;2024-03-02T12:24:23;1.92;;;1.83;;
59856;SDS011;45733;52.668;6.860;2024-03-02T12:26:50;2.22;;;2.13;;
59856;SDS011;45733;52.668;6.860;2024-03-02T12:29:20;1.60;;;1.50;;
59856;SDS011;45733;52.668;6.860;2024-03-02T12:31:50;1.73;;;1.63;;
59856;SDS011;45733;52.668;6.860;2024-03-02T12:34:20;2.30;;;2.20;;
59856;SDS011;45733;52.668;6.860;2024-03-02T12:36:46;1.83;;;1.73;;
59856;SDS011;45733;52.668;6.860;2024-03-02T12:39:14;2.50;;;2.40;;
59856;SDS011;45733;52.668;6.860;2024-03-02T12:41:41;2.03;;;1.92;;
59856;SDS011;45733;52.668;6.860;2024-03-02T12:44:09;2.60;;;2.50;;
59856;SDS011;45733;52.668;6.860;2024-03-02T12:46:35;2.30;;;2.20;;
59856;SDS011;45733;52.668;6.860;2024-03-02T12:49:10;2.40;;;2.30;;
59856;SDS011;45733;52.668;6.860;2024-03-02T12:51:37;2.45;;;2.35;;
59856;SDS011;45733;52.668;6.860;2024-03-02T12:54:10;2.42;;;2.33;;
59856;SDS011;45733;52.668;6.860;2024-03-02T12:56:40;2.10;;;2.00;;
59856;SDS011;45733;52.668;6.860;2024-03-02T12:59:10;2.30;;;2.20;;
59856;SDS011;45733;52.668;6.860;2024-03-02T13:01:51;2.40;;;2.30;;
59856;SDS011;45733;52.668;6.860;2024-03-02T13:04:17;2.00;;;1.90;;
59856;SDS011;45733;52.668;6.860;2024-03-02T13:06:46;2.42;;;2.33;;
59856;SDS011;45733;52.668;6.860;2024-03-02T13:09:12;1.90;;;1.80;;
59856;SDS011;45733;52.668;6.860;2024-03-02T13:11:40;1.75;;;1.65;;
59856;SDS011;45733;52.668;6.860;2024-03-02T13:14:06;1.77;;;1.67;;
59856;SDS011;45733;52.668;6.860;2024-03-02T13:16:37;2.10;;;2.00;;
59856;SDS011;45733;52.668;6.860;2024-03-02T13:19:13;1.90;;;1.80;;
59856;SDS011;45733;52.668;6.860;2024-03-02T13:21:38;1.90;;;1.80;;
59856;SDS011;45733;52.668;6.860;2024-03-02T13:24:04;2.00;;;1.90;;
59856;SDS011;45733;52.668;6.860;2024-03-02T13:26:31;2.33;;;2.22;;
59856;SDS011;45733;52.668;6.860;2024-03-02T13:28:56;1.90;;;1.80;;
59856;SDS011;45733;52.668;6.860;2024-03-02T13:31:22;1.80;;;1.70;;
59856;SDS011;45733;52.668;6.860;2024-03-02T13:33:48;1.80;;;1.70;;
59856;SDS011;45733;52.668;6.860;2024-03-02T13:36:13;1.98;;;1.88;;
59856;SDS011;45733;52.668;6.860;2024-03-02T13:38:39;1.60;;;1.50;;
59856;SDS011;45733;52.668;6.860;2024-03-02T13:41:05;2.03;;;1.92;;
59856;SDS011;45733;52.668;6.860;2024-03-02T13:43:31;2.03;;;1.92;;
59856;SDS011;45733;52.668;6.860;2024-03-02T13:45:58;2.13;;;2.03;;
59856;SDS011;45733;52.668;6.860;2024-03-02T13:48:24;2.10;;;2.00;;
59856;SDS011;45733;52.668;6.860;2024-03-02T13:50:52;2.00;;;1.90;;
59856;SDS011;45733;52.668;6.860;2024-03-02T13:53:18;1.90;;;1.80;;
59856;SDS011;45733;52.668;6.860;2024-03-02T13:55:44;2.20;;;2.10;;
59856;SDS011;45733;52.668;6.860;2024-03-02T13:58:10;2.10;;;2.00;;
59856;SDS011;45733;52.668;6.860;2024-03-02T14:00:36;2.03;;;1.92;;
59856;SDS011;45733;52.668;6.860;2024-03-02T14:03:04;1.90;;;1.80;;
59856;SDS011;45733;52.668;6.860;2024-03-02T14:05:33;1.80;;;1.70;;
59856;SDS011;45733;52.668;6.860;2024-03-02T14:07:59;1.60;;;1.50;;
59856;SDS011;45733;52.668;6.860;2024-03-02T14:10:25;1.23;;;1.23;;
59856;SDS011;45733;52.668;6.860;2024-03-02T14:12:52;1.20;;;1.20;;
59856;SDS011;45733;52.668;6.860;2024-03-02T14:15:17;1.10;;;1.10;;
59856;SDS011;45733;52.668;6.860;2024-03-02T14:17:43;1.17;;;1.17;;
59856;SDS011;45733;52.668;6.860;2024-03-02T14:20:09;1.30;;;1.30;;
59856;SDS011;45733;52.668;6.860;2024-03-02T14:22:37;1.30;;;1.30;;
59856;SDS011;45733;52.668;6.860;2024-03-02T14:25:03;1.33;;;1.33;;
59856;SDS011;45733;52.668;6.860;2024-03-02T14:27:29;1.45;;;1.38;;
59856;SDS011;45733;52.668;6.860;2024-03-02T14:29:55;1.58;;;1.48;;
59856;SDS011;45733;52.668;6.860;2024-03-02T14:32:21;1.60;;;1.50;;
59856;SDS011;45733;52.668;6.860;2024-03-02T14:34:47;1.60;;;1.50;;
59856;SDS011;45733;52.668;6.860;2024-03-02T14:37:14;1.65;;;1.55;;
59856;SDS011;45733;52.668;6.860;2024-03-02T14:39:40;1.60;;;1.50;;
59856;SDS011;45733;52.668;6.860;2024-03-02T14:42:06;1.60;;;1.50;;
59856;SDS011;45733;52.668;6.860;2024-03-02T14:44:32;1.48;;;1.40;;
59856;SDS011;45733;52.668;6.860;2024-03-02T14:46:59;1.50;;;1.40;;
59856;SDS011;45733;52.668;6.860;2024-03-02T14:49:27;1.50;;;1.40;;
59856;SDS011;45733;52.668;6.860;2024-03-02T14:51:52;1.30;;;1.30;;
59856;SDS011;45733;52.668;6.860;2024-03-02T14:54:22;1.23;;;1.23;;
59856;SDS011;45733;52.668;6.860;2024-03-02T14:56:48;1.20;;;1.20;;
59856;SDS011;45733;52.668;6.860;2024-03-02T14:59:14;1.10;;;1.10;;
59856;SDS011;45733;52.668;6.860;2024-03-02T15:01:40;1.08;;;1.08;;
59856;SDS011;45733;52.668;6.860;2024-03-02T15:04:05;1.00;;;1.00;;
59856;SDS011;45733;52.668;6.860;2024-03-02T15:06:31;1.00;;;1.00;;
59856;SDS011;45733;52.668;6.860;2024-03-02T15:08:57;0.90;;;0.90;;